createdAt,value
2024-02-24T00:01:07.441Z,99302.94
2024-02-24T00:03:35.720Z,99302.13
2024-02-24T00:06:03.551Z,99305.09
2024-02-24T00:08:31.776Z,99297.78
2024-02-24T00:10:59.936Z,99295.88
2024-02-24T00:13:27.814Z,99295.34
2024-02-24T00:15:55.591Z,99298.31
2024-02-24T00:18:25.050Z,99301.03
2024-02-24T00:20:53.396Z,99299.94
2024-02-24T00:23:21.206Z,99298.84
2024-02-24T00:25:48.933Z,99292.59
2024-02-24T00:28:17.093Z,99298.31
2024-02-24T00:30:44.871Z,99293.16
2024-02-24T00:33:12.863Z,99302.38
2024-02-24T00:35:42.693Z,99302.91
2024-02-24T00:38:10.500Z,99310.78
2024-02-24T00:40:38.543Z,99312.94
2024-02-24T00:43:06.246Z,99318.34
2024-02-24T00:45:33.985Z,99312.09
2024-02-24T00:48:01.719Z,99317.22
2024-02-24T00:50:30.782Z,99323.47
2024-02-24T00:53:00.067Z,99319.38
2024-02-24T00:55:28.633Z,99318.84
2024-02-24T00:57:56.825Z,99316.13
2024-02-24T01:00:24.895Z,99307.44
2024-02-24T01:02:52.670Z,99296.53
2024-02-24T01:05:20.969Z,99288.72
2024-02-24T01:07:49.101Z,99297.38
2024-02-24T01:10:18.304Z,99301.19
2024-02-24T01:12:46.520Z,99302.53
2024-02-24T01:15:14.771Z,99294.66
2024-02-24T01:17:42.691Z,99296.78
2024-02-24T01:20:12.085Z,99291.66
2024-02-24T01:22:39.885Z,99291.13
2024-02-24T01:25:08.934Z,99293.81
2024-02-24T01:27:38.134Z,99284.06
2024-02-24T01:30:06.479Z,99284.31
2024-02-24T01:32:34.643Z,99288.63
2024-02-24T01:35:03.702Z,99295.16
2024-02-24T01:37:31.548Z,99299.19
2024-02-24T01:39:59.298Z,99300.50
2024-02-24T01:42:27.425Z,99301.03
2024-02-24T01:44:56.536Z,99297.22
2024-02-24T01:47:25.345Z,99296.16
2024-02-24T01:49:55.228Z,99292.59
2024-02-24T01:52:23.094Z,99287.34
2024-02-24T01:54:51.576Z,99286.22
2024-02-24T01:57:20.043Z,99281.09
2024-02-24T01:59:48.232Z,99278.13
2024-02-24T02:02:18.023Z,99275.19
2024-02-24T02:04:46.849Z,99275.97
2024-02-24T02:07:15.021Z,99270.88
2024-02-24T02:09:55.693Z,99274.66
2024-02-24T02:12:23.630Z,99275.78
2024-02-24T02:14:51.850Z,99268.22
2024-02-24T02:17:21.973Z,99274.16
2024-02-24T02:19:50.688Z,99275.53
2024-02-24T02:22:20.660Z,99272.81
2024-02-24T02:24:50.987Z,99274.47
2024-02-24T02:27:19.169Z,99276.41
2024-02-24T02:29:46.970Z,99277.41
2024-02-24T02:32:14.820Z,99275.25
2024-02-24T02:34:43.027Z,99267.13
2024-02-24T02:37:10.771Z,99273.63
2024-02-24T02:39:38.492Z,99274.44
2024-02-24T02:42:08.388Z,99273.13
2024-02-24T02:44:36.572Z,99277.19
2024-02-24T02:47:11.437Z,99270.69
2024-02-24T02:49:45.604Z,99278.25
2024-02-24T02:52:13.533Z,99274.19
2024-02-24T02:54:41.634Z,99286.09
2024-02-24T02:57:11.053Z,99276.09
2024-02-24T02:59:38.805Z,99277.41
2024-02-24T03:02:07.121Z,99274.97
2024-02-24T03:04:35.448Z,99272.75
2024-02-24T03:07:03.203Z,99262.19
2024-02-24T03:09:30.905Z,99259.44
2024-02-24T03:11:59.021Z,99260.25
2024-02-24T03:14:28.767Z,99273.78
2024-02-24T03:16:56.618Z,99267.84
2024-02-24T03:19:24.876Z,99273.84
2024-02-24T03:21:52.679Z,99270.34
2024-02-24T03:24:20.405Z,99272.75
2024-02-24T03:26:48.752Z,99267.63
2024-02-24T03:29:16.492Z,99266.53
2024-02-24T03:31:45.580Z,99267.59
2024-02-24T03:34:13.764Z,99264.59
2024-02-24T03:36:42.433Z,99270.34
2024-02-24T03:39:09.496Z,99263.59
2024-02-24T03:41:37.254Z,99270.91
2024-02-24T03:44:05.311Z,99273.63
2024-02-24T03:46:33.104Z,99276.63
2024-02-24T03:49:02.925Z,99282.84
2024-02-24T03:51:31.190Z,99280.66
2024-02-24T03:53:58.991Z,99279.03
2024-02-24T03:56:27.256Z,99277.69
2024-02-24T03:58:54.988Z,99268.94
2024-02-24T04:01:23.074Z,99267.31
2024-02-24T04:03:50.869Z,99265.69
2024-02-24T04:06:20.099Z,99276.28
2024-02-24T04:08:48.263Z,99278.69
2024-02-24T04:11:16.233Z,99273.75
2024-02-24T04:13:44.088Z,99278.09
2024-02-24T04:16:12.320Z,99280.78
2024-02-24T04:18:40.140Z,99282.94
2024-02-24T04:21:08.347Z,99287.00
2024-02-24T04:23:37.595Z,99282.00
2024-02-24T04:26:05.732Z,99293.06
2024-02-24T04:28:34.040Z,99297.34
2024-02-24T04:31:01.832Z,99292.97
2024-02-24T04:33:30.067Z,99286.09
2024-02-24T04:35:58.287Z,99279.59
2024-02-24T04:38:26.093Z,99276.53
2024-02-24T04:40:55.166Z,99264.31
2024-02-24T04:43:23.302Z,99255.47
2024-02-24T04:45:51.457Z,99264.16
2024-02-24T04:48:19.314Z,99275.53
2024-02-24T04:50:47.566Z,99276.59
2024-02-24T04:53:15.691Z,99282.59
2024-02-24T04:55:43.657Z,99289.38
2024-02-24T04:58:12.701Z,99299.09
2024-02-24T05:00:40.612Z,99298.78
2024-02-24T05:03:08.343Z,99311.75
2024-02-24T05:05:36.436Z,99307.06
2024-02-24T05:08:04.348Z,99307.03
2024-02-24T05:10:32.146Z,99306.63
2024-02-24T05:13:02.110Z,99309.38
2024-02-24T05:15:32.009Z,99306.38
2024-02-24T05:17:59.899Z,99302.59
2024-02-24T05:20:27.702Z,99308.34
2024-02-24T05:22:55.820Z,99310.34
2024-02-24T05:25:23.554Z,99313.41
2024-02-24T05:27:51.301Z,99318.56
2024-02-24T05:30:19.425Z,99314.50
2024-02-24T05:32:48.555Z,99312.53
2024-02-24T05:35:16.805Z,99319.81
2024-02-24T05:37:45.042Z,99329.53
2024-02-24T05:40:14.375Z,99344.66
2024-02-24T05:42:43.548Z,99342.94
2024-02-24T05:45:12.042Z,99341.06
2024-02-24T05:47:39.795Z,99340.59
2024-02-24T05:50:09.421Z,99338.19
2024-02-24T05:52:38.017Z,99341.13
2024-02-24T05:55:06.951Z,99339.97
2024-02-24T05:57:35.332Z,99338.53
2024-02-24T06:00:03.913Z,99335.03
2024-02-24T06:02:32.247Z,99333.22
2024-02-24T06:05:00.196Z,99333.75
2024-02-24T06:07:29.869Z,99331.28
2024-02-24T06:09:58.096Z,99340.25
2024-02-24T06:12:25.932Z,99336.63
2024-02-24T06:14:53.793Z,99335.00
2024-02-24T06:17:21.702Z,99335.81
2024-02-24T06:19:49.596Z,99343.94
2024-02-24T06:22:17.927Z,99340.66
2024-02-24T06:24:47.598Z,99348.47
2024-02-24T06:27:15.802Z,99344.69
2024-02-24T06:29:45.059Z,99354.94
2024-02-24T06:32:13.067Z,99352.00
2024-02-24T06:34:44.662Z,99355.69
2024-02-24T06:37:12.674Z,99354.38
2024-02-24T06:39:41.137Z,99348.97
2024-02-24T06:42:10.708Z,99350.09
2024-02-24T06:44:39.041Z,99356.06
2024-02-24T06:47:17.893Z,99360.97
2024-02-24T06:49:53.372Z,99365.97
2024-02-24T06:52:21.164Z,99372.25
2024-02-24T06:54:49.248Z,99368.16
2024-02-24T06:57:18.352Z,99372.19
2024-02-24T06:59:46.493Z,99360.56
2024-02-24T07:02:14.718Z,99363.84
2024-02-24T07:04:43.000Z,99368.78
2024-02-24T07:07:11.363Z,99368.25
2024-02-24T07:09:39.384Z,99369.44
2024-02-24T07:12:08.545Z,99383.56
2024-02-24T07:14:38.040Z,99380.16
2024-02-24T07:17:06.367Z,99390.00
2024-02-24T07:19:34.188Z,99400.34
2024-02-24T07:22:02.661Z,99401.94
2024-02-24T07:24:30.928Z,99403.59
2024-02-24T07:26:59.132Z,99408.53
2024-02-24T07:29:27.267Z,99414.84
2024-02-24T07:31:56.325Z,99424.91
2024-02-24T07:34:24.367Z,99423.84
2024-02-24T07:36:52.699Z,99427.72
2024-02-24T07:39:20.758Z,99431.25
2024-02-24T07:41:49.109Z,99432.34
2024-02-24T07:44:18.400Z,99435.91
2024-02-24T07:46:47.575Z,99437.53
2024-02-24T07:49:16.852Z,99439.19
2024-02-24T07:51:45.557Z,99446.34
2024-02-24T07:54:13.833Z,99448.63
2024-02-24T07:56:42.111Z,99452.00
2024-02-24T07:59:09.983Z,99457.22
2024-02-24T08:01:38.200Z,99463.44
2024-02-24T08:04:06.143Z,99469.41
2024-02-24T08:06:35.662Z,99477.06
2024-02-24T08:09:03.492Z,99475.75
2024-02-24T08:11:38.760Z,99483.97
2024-02-24T08:14:06.572Z,99486.41
2024-02-24T08:16:34.485Z,99479.38
2024-02-24T08:19:03.270Z,99485.38
2024-02-24T08:21:32.934Z,99480.78
2024-02-24T08:24:07.367Z,99483.00
2024-02-24T08:26:36.184Z,99485.41
2024-02-24T08:29:04.391Z,99489.25
2024-02-24T08:31:32.077Z,99495.22
2024-02-24T08:33:59.980Z,99505.03
2024-02-24T08:36:28.324Z,99522.97
2024-02-24T08:38:57.974Z,99515.91
2024-02-24T08:41:27.677Z,99519.41
2024-02-24T08:43:55.430Z,99510.72
2024-02-24T08:46:23.506Z,99524.31
2024-02-24T08:48:51.222Z,99524.28
2024-02-24T08:51:18.961Z,99518.81
2024-02-24T08:53:46.843Z,99524.78
2024-02-24T08:56:15.339Z,99533.97
2024-02-24T08:58:44.458Z,99534.75
2024-02-24T09:01:13.397Z,99530.13
2024-02-24T09:03:41.794Z,99535.25
2024-02-24T09:06:09.880Z,99523.78
2024-02-24T09:08:39.758Z,99535.16
2024-02-24T09:11:07.872Z,99546.22
2024-02-24T09:13:35.995Z,99540.50
2024-02-24T09:16:06.063Z,99544.53
2024-02-24T09:18:34.325Z,99551.53
2024-02-24T09:21:02.178Z,99554.34
2024-02-24T09:23:30.353Z,99566.16
2024-02-24T09:25:58.255Z,99569.22
2024-02-24T09:28:25.942Z,99578.59
2024-02-24T09:30:53.648Z,99582.03
2024-02-24T09:33:23.172Z,99584.09
2024-02-24T09:35:51.472Z,99584.09
2024-02-24T09:38:19.217Z,99596.94
2024-02-24T09:40:46.939Z,99594.66
2024-02-24T09:43:15.513Z,99597.25
2024-02-24T09:45:47.936Z,99603.59
2024-02-24T09:48:16.490Z,99594.25
2024-02-24T09:50:45.934Z,99602.84
2024-02-24T09:53:13.778Z,99602.09
2024-02-24T09:55:42.018Z,99602.75
2024-02-24T09:58:13.945Z,99611.41
2024-02-24T10:00:42.734Z,99609.31
2024-02-24T10:03:11.438Z,99628.25
2024-02-24T10:05:42.315Z,99637.72
2024-02-24T10:08:12.862Z,99626.38
2024-02-24T10:10:40.463Z,99633.44
2024-02-24T10:13:08.687Z,99625.38
2024-02-24T10:15:36.871Z,99621.59
2024-02-24T10:18:06.275Z,99624.56
2024-02-24T10:20:34.160Z,99625.25
2024-02-24T10:23:02.407Z,99630.22
2024-02-24T10:25:31.541Z,99628.91
2024-02-24T10:28:00.552Z,99637.56
2024-02-24T10:30:30.122Z,99625.91
2024-02-24T10:33:00.969Z,99635.94
2024-02-24T10:35:29.140Z,99637.75
2024-02-24T10:38:11.390Z,99644.84
2024-02-24T10:40:47.352Z,99639.50
2024-02-24T10:43:16.606Z,99655.44
2024-02-24T10:45:44.558Z,99653.22
2024-02-24T10:48:12.866Z,99659.03
2024-02-24T10:50:41.652Z,99660.25
2024-02-24T10:53:11.659Z,99669.47
2024-02-24T10:55:41.578Z,99654.44
2024-02-24T10:58:11.607Z,99656.69
2024-02-24T11:00:45.939Z,99665.00
2024-02-24T11:03:15.013Z,99673.03
2024-02-24T11:05:48.092Z,99676.69
2024-02-24T11:08:37.319Z,99673.47
2024-02-24T11:11:06.759Z,99679.63
2024-02-24T11:13:36.117Z,99676.38
2024-02-24T11:16:06.770Z,99670.38
2024-02-24T11:18:56.841Z,99673.22
2024-02-24T11:21:58.058Z,99674.84
2024-02-24T11:24:31.886Z,99678.84
2024-02-24T11:27:00.049Z,99682.56
2024-02-24T11:29:30.527Z,99673.19
2024-02-24T11:32:14.290Z,99678.50
2024-02-24T11:34:45.305Z,99668.16
2024-02-24T11:37:17.101Z,99668.97
2024-02-24T11:39:45.832Z,99676.47
2024-02-24T11:42:15.138Z,99678.31
2024-02-24T11:44:49.048Z,99682.41
2024-02-24T11:47:20.456Z,99687.28
2024-02-24T11:49:50.119Z,99679.53
2024-02-24T11:52:18.713Z,99684.91
2024-02-24T11:54:47.173Z,99698.66
2024-02-24T11:57:15.419Z,99698.56
2024-02-24T11:59:43.564Z,99697.91
2024-02-24T12:02:15.895Z,99702.00
2024-02-24T12:04:43.749Z,99706.00
2024-02-24T12:07:11.983Z,99709.31
2024-02-24T12:09:39.868Z,99708.91
2024-02-24T12:12:08.934Z,99707.41
2024-02-24T12:14:37.249Z,99708.06
2024-02-24T12:17:06.205Z,99721.41
2024-02-24T12:19:38.950Z,99717.75
2024-02-24T12:22:10.564Z,99722.97
2024-02-24T12:24:39.970Z,99728.56
2024-02-24T12:27:10.903Z,99725.31
2024-02-24T12:29:39.905Z,99721.34
2024-02-24T12:32:08.816Z,99708.78
2024-02-24T12:34:38.699Z,99717.72
2024-02-24T12:37:08.704Z,99719.56
2024-02-24T12:39:42.370Z,99718.59
2024-02-24T12:42:10.193Z,99713.59
2024-02-24T12:44:38.235Z,99707.28
2024-02-24T12:47:07.034Z,99715.63
2024-02-24T12:49:34.963Z,99718.38
2024-02-24T12:52:05.593Z,99715.13
2024-02-24T12:54:33.302Z,99700.91
2024-02-24T12:57:01.076Z,99702.81
2024-02-24T12:59:30.089Z,99703.31
2024-02-24T13:01:59.980Z,99700.84
2024-02-24T13:04:28.856Z,99704.78
2024-02-24T13:06:56.873Z,99709.03
2024-02-24T13:09:26.208Z,99706.34
2024-02-24T13:11:56.940Z,99702.38
2024-02-24T13:14:25.905Z,99712.06
2024-02-24T13:16:53.799Z,99711.66
2024-02-24T13:19:21.652Z,99722.34
2024-02-24T13:21:49.721Z,99715.41
2024-02-24T13:24:17.465Z,99715.59
2024-02-24T13:26:46.630Z,99714.22
2024-02-24T13:29:14.416Z,99732.69
2024-02-24T13:31:43.093Z,99738.28
2024-02-24T13:34:11.000Z,99734.22
2024-02-24T13:36:39.242Z,99748.16
2024-02-24T13:39:06.993Z,99741.84
2024-02-24T13:41:36.044Z,99743.16
2024-02-24T13:44:06.351Z,99752.66
2024-02-24T13:46:34.292Z,99754.28
2024-02-24T13:49:05.277Z,99758.34
2024-02-24T13:51:33.607Z,99754.97
2024-02-24T13:54:01.541Z,99747.41
2024-02-24T13:56:29.762Z,99747.81
2024-02-24T13:58:57.575Z,99748.41
2024-02-24T14:01:26.994Z,99753.81
2024-02-24T14:03:54.726Z,99760.69
2024-02-24T14:06:24.819Z,99756.31
2024-02-24T14:08:53.149Z,99758.94
2024-02-24T14:11:21.037Z,99763.63
2024-02-24T14:13:49.306Z,99767.06
2024-02-24T14:16:17.757Z,99769.13
2024-02-24T14:18:47.064Z,99773.50
2024-02-24T14:21:15.402Z,99768.91
2024-02-24T14:23:43.547Z,99771.19
2024-02-24T14:26:11.336Z,99769.47
2024-02-24T14:28:40.034Z,99773.81
2024-02-24T14:31:07.749Z,99772.53
2024-02-24T14:33:35.779Z,99780.50
2024-02-24T14:36:05.716Z,99782.53
2024-02-24T14:38:33.554Z,99772.34
2024-02-24T14:41:02.225Z,99780.06
2024-02-24T14:43:29.973Z,99784.69
2024-02-24T14:45:57.673Z,99777.91
2024-02-24T14:48:25.955Z,99782.66
2024-02-24T14:50:54.185Z,99790.50
2024-02-24T14:53:23.267Z,99786.59
2024-02-24T14:55:50.932Z,99786.78
2024-02-24T14:58:20.667Z,99793.91
2024-02-24T15:00:48.719Z,99799.69
2024-02-24T15:03:17.045Z,99809.63
2024-02-24T15:05:45.071Z,99808.34
2024-02-24T15:08:13.136Z,99816.88
2024-02-24T15:10:42.202Z,99807.25
2024-02-24T15:13:10.773Z,99823.53
2024-02-24T15:15:39.923Z,99827.50
2024-02-24T15:18:08.711Z,99837.38
2024-02-24T15:20:36.892Z,99840.03
2024-02-24T15:23:07.695Z,99848.06
2024-02-24T15:25:35.792Z,99850.81
2024-02-24T15:28:06.509Z,99844.47
2024-02-24T15:30:34.675Z,99844.19
2024-02-24T15:33:04.210Z,99852.22
2024-02-24T15:35:32.350Z,99852.31
2024-02-24T15:38:00.745Z,99854.16
2024-02-24T15:40:32.466Z,99849.34
2024-02-24T15:43:02.409Z,99848.97
2024-02-24T15:45:31.976Z,99854.94
2024-02-24T15:47:59.732Z,99858.19
2024-02-24T15:50:27.665Z,99849.28
2024-02-24T15:52:56.077Z,99862.63
2024-02-24T15:55:24.099Z,99861.03
2024-02-24T15:57:52.677Z,99858.59
2024-02-24T16:00:22.081Z,99865.25
2024-02-24T16:02:51.198Z,99852.91
2024-02-24T16:05:19.595Z,99860.88
2024-02-24T16:07:47.876Z,99868.59
2024-02-24T16:10:16.410Z,99863.78
2024-02-24T16:12:44.521Z,99862.81
2024-02-24T16:15:13.176Z,99862.34
2024-02-24T16:17:41.684Z,99861.59
2024-02-24T16:20:11.629Z,99869.34
2024-02-24T16:22:40.706Z,99864.75
2024-02-24T16:25:08.974Z,99868.09
2024-02-24T16:27:36.657Z,99875.25
2024-02-24T16:30:05.050Z,99875.16
2024-02-24T16:32:33.244Z,99878.66
2024-02-24T16:35:01.516Z,99882.09
2024-02-24T16:37:30.665Z,99878.63
2024-02-24T16:39:58.762Z,99881.94
2024-02-24T16:42:26.493Z,99878.25
2024-02-24T16:44:55.331Z,99882.97
2024-02-24T16:47:23.490Z,99878.66
2024-02-24T16:49:51.334Z,99886.75
2024-02-24T16:52:19.084Z,99882.16
2024-02-24T16:54:48.498Z,99895.28
2024-02-24T16:57:16.340Z,99897.53
2024-02-24T16:59:44.056Z,99888.63
2024-02-24T17:02:11.809Z,99900.75
2024-02-24T17:04:41.101Z,99902.97
2024-02-24T17:07:09.422Z,99913.09
2024-02-24T17:09:37.600Z,99904.66
2024-02-24T17:12:07.224Z,99913.66
2024-02-24T17:14:37.182Z,99927.38
2024-02-24T17:17:04.501Z,99931.53
2024-02-24T17:19:32.403Z,99928.00
2024-02-24T17:22:00.515Z,99935.94
2024-02-24T17:24:28.845Z,99945.88
2024-02-24T17:26:56.936Z,99944.66
2024-02-24T17:29:26.552Z,99952.38
2024-02-24T17:31:54.282Z,99965.75
2024-02-24T17:34:22.617Z,99970.75
2024-02-24T17:36:51.217Z,99967.22
2024-02-24T17:39:21.121Z,99975.38
2024-02-24T17:41:49.533Z,99977.00
2024-02-24T17:44:17.344Z,99981.94
2024-02-24T17:46:46.926Z,99982.00
2024-02-24T17:49:14.964Z,99990.25
2024-02-24T17:51:42.783Z,99996.03
2024-02-24T17:54:10.914Z,99999.03
2024-02-24T17:56:41.393Z,99999.56
2024-02-24T17:59:09.494Z,100002.00
2024-02-24T18:01:37.411Z,100000.41
2024-02-24T18:04:06.943Z,100014.09
2024-02-24T18:06:35.052Z,100019.88
2024-02-24T18:09:03.242Z,100032.44
2024-02-24T18:11:32.032Z,100021.22
2024-02-24T18:14:00.424Z,100029.44
2024-02-24T18:16:28.579Z,100025.66
2024-02-24T18:18:56.809Z,100029.19
2024-02-24T18:21:26.038Z,100026.19
2024-02-24T18:23:54.199Z,100022.41
2024-02-24T18:26:22.091Z,100025.38
2024-02-24T18:28:49.787Z,100027.06
2024-02-24T18:31:18.283Z,100024.88
2024-02-24T18:33:46.089Z,100032.22
2024-02-24T18:36:14.253Z,100040.44
2024-02-24T18:38:43.522Z,100037.72
2024-02-24T18:41:11.554Z,100030.13
2024-02-24T18:43:39.608Z,100041.88
2024-02-24T18:46:07.853Z,100044.06
2024-02-24T18:48:35.960Z,100046.28
2024-02-24T18:51:04.755Z,100058.84
2024-02-24T18:53:34.614Z,100057.44
2024-02-24T18:56:04.113Z,100050.66
2024-02-24T18:58:32.558Z,100061.31
2024-02-24T19:01:02.204Z,100056.94
2024-02-24T19:03:30.699Z,100062.41
2024-02-24T19:06:00.699Z,100062.69
2024-02-24T19:08:29.140Z,100062.69
2024-02-24T19:10:59.340Z,100058.28
2024-02-24T19:13:28.680Z,100052.03
2024-02-24T19:15:57.247Z,100052.06
2024-02-24T19:18:25.482Z,100056.94
2024-02-24T19:20:53.298Z,100059.97
2024-02-24T19:23:21.702Z,100054.50
2024-02-24T19:25:50.960Z,100061.63
2024-02-24T19:28:18.763Z,100060.25
2024-02-24T19:30:48.360Z,100061.34
2024-02-24T19:33:16.244Z,100063.25
2024-02-24T19:35:44.663Z,100060.53
2024-02-24T19:38:13.601Z,100066.25
2024-02-24T19:40:43.001Z,100067.09
2024-02-24T19:43:10.942Z,100071.72
2024-02-24T19:45:39.089Z,100071.16
2024-02-24T19:48:09.510Z,100078.25
2024-02-24T19:50:37.570Z,100077.41
2024-02-24T19:53:05.744Z,100083.69
2024-02-24T19:55:33.465Z,100084.78
2024-02-24T19:58:02.563Z,100090.19
2024-02-24T20:00:31.266Z,100089.66
2024-02-24T20:02:59.046Z,100089.63
2024-02-24T20:05:28.552Z,100083.84
2024-02-24T20:07:58.078Z,100083.25
2024-02-24T20:10:28.526Z,100074.19
2024-02-24T20:12:57.486Z,100069.50
2024-02-24T20:15:25.244Z,100074.56
2024-02-24T20:17:53.444Z,100073.75
2024-02-24T20:20:21.737Z,100075.59
2024-02-24T20:22:50.847Z,100082.66
2024-02-24T20:25:18.867Z,100073.41
2024-02-24T20:27:46.567Z,100073.41
2024-02-24T20:30:20.533Z,100079.41
2024-02-24T20:32:53.296Z,100077.81
2024-02-24T20:35:22.086Z,100082.69
2024-02-24T20:37:51.658Z,100086.50
2024-02-24T20:40:19.762Z,100079.63
2024-02-24T20:42:47.441Z,100088.31
2024-02-24T20:45:15.672Z,100083.88
2024-02-24T20:47:43.514Z,100086.34
2024-02-24T20:50:12.249Z,100081.34
2024-02-24T20:52:41.088Z,100079.66
2024-02-24T20:55:10.850Z,100081.53
2024-02-24T20:57:39.000Z,100075.00
2024-02-24T21:00:09.410Z,100075.06
2024-02-24T21:02:38.132Z,100068.25
2024-02-24T21:05:06.876Z,100069.09
2024-02-24T21:07:34.996Z,100071.25
2024-02-24T21:10:02.772Z,100070.66
2024-02-24T21:12:32.239Z,100075.06
2024-02-24T21:15:00.412Z,100081.63
2024-02-24T21:17:28.368Z,100079.47
2024-02-24T21:19:56.566Z,100082.19
2024-02-24T21:22:24.734Z,100078.59
2024-02-24T21:24:52.400Z,100072.03
2024-02-24T21:27:20.140Z,100072.56
2024-02-24T21:29:50.338Z,100066.28
2024-02-24T21:32:18.188Z,100070.94
2024-02-24T21:34:46.523Z,100071.53
2024-02-24T21:37:15.484Z,100068.00
2024-02-24T21:39:43.215Z,100067.13
2024-02-24T21:42:11.472Z,100075.00
2024-02-24T21:44:39.270Z,100068.53
2024-02-24T21:47:08.572Z,100075.00
2024-02-24T21:49:36.827Z,100071.75
2024-02-24T21:52:08.329Z,100083.44
2024-02-24T21:54:36.330Z,100086.94
2024-02-24T21:57:04.752Z,100081.25
2024-02-24T21:59:32.935Z,100080.97
2024-02-24T22:02:00.657Z,100080.72
2024-02-24T22:04:29.744Z,100079.28
2024-02-24T22:06:57.575Z,100083.88
2024-02-24T22:09:25.347Z,100080.00
2024-02-24T22:11:53.454Z,100070.78
2024-02-24T22:14:22.576Z,100068.91
2024-02-24T22:16:50.819Z,100073.81
2024-02-24T22:19:19.078Z,100058.63
2024-02-24T22:21:48.271Z,100064.63
2024-02-24T22:24:16.015Z,100064.63
2024-02-24T22:26:47.331Z,100078.78
2024-02-24T22:29:15.460Z,100081.22
2024-02-24T22:31:46.369Z,100081.47
2024-02-24T22:34:14.272Z,100083.88
2024-02-24T22:36:42.238Z,100074.94
2024-02-24T22:39:11.843Z,100074.94
2024-02-24T22:41:40.096Z,100084.75
2024-02-24T22:44:08.774Z,100095.88
2024-02-24T22:46:36.996Z,100095.59
2024-02-24T22:49:05.010Z,100102.31
2024-02-24T22:51:33.192Z,100105.22
2024-02-24T22:54:01.387Z,100107.38
2024-02-24T22:56:31.795Z,100124.47
2024-02-24T22:59:01.999Z,100121.75
2024-02-24T23:01:32.044Z,100123.34
2024-02-24T23:04:01.891Z,100128.25
2024-02-24T23:06:29.801Z,100132.13
2024-02-24T23:08:58.170Z,100126.06
2024-02-24T23:11:32.945Z,100129.44
2024-02-24T23:14:05.787Z,100142.47
2024-02-24T23:16:33.519Z,100139.22
2024-02-24T23:19:01.685Z,100138.91
2024-02-24T23:21:31.346Z,100143.03
2024-02-24T23:23:59.444Z,100136.41
2024-02-24T23:26:27.212Z,100143.16
2024-02-24T23:28:54.961Z,100143.09
2024-02-24T23:31:24.642Z,100143.91
2024-02-24T23:33:52.894Z,100142.59
2024-02-24T23:36:21.050Z,100136.03
2024-02-24T23:38:48.847Z,100132.81
2024-02-24T23:41:17.218Z,100139.63
2024-02-24T23:43:45.284Z,100136.28
2024-02-24T23:46:14.375Z,100140.38
2024-02-24T23:48:45.508Z,100147.41
2024-02-24T23:51:13.642Z,100142.34
2024-02-24T23:53:41.892Z,100151.25
2024-02-24T23:56:10.193Z,100145.44
2024-02-24T23:58:37.994Z,100150.63
